Time;durP1;ratioP1;P1;durP2;ratioP2;P2;SDS_P1;SDS_P2;PMS_P1;PMS_P2;Temp;Humidity;BMP_temperature;BMP_pressure;BME280_temperature;BME280_humidity;BME280_pressure;Samples;Min_cycle;Max_cycle;Signal;HPM_P1;HPM_P2
2024/01/22 00:00:50;;;;;;;6.95;5.13;;;;;;;7.77;100.00;100652.31;5051335;28;20029;-79
2024/01/22 00:03:17;;;;;;;7.45;4.85;;;;;;;7.75;100.00;100666.84;5051431;28;20116;-79
2024/01/22 00:05:42;;;;;;;7.03;5.05;;;;;;;7.77;100.00;100617.72;5033411;28;20033;-77
2024/01/22 00:08:10;;;;;;;6.00;4.50;;;;;;;7.82;100.00;100630.44;5054397;28;20087;-80
2024/01/22 00:10:35;;;;;;;6.78;5.07;;;;;;;7.81;100.00;100615.50;5055021;28;20078;-78
2024/01/22 00:13:00;;;;;;;7.97;5.63;;;;;;;7.77;100.00;100611.56;5054923;28;20037;-79
2024/01/22 00:15:26;;;;;;;6.22;4.93;;;;;;;7.66;100.00;100650.25;5054612;28;20037;-78
2024/01/22 00:17:51;;;;;;;8.35;5.10;;;;;;;7.67;100.00;100603.16;5054533;28;20029;-78
2024/01/22 00:20:17;;;;;;;8.13;4.75;;;;;;;7.74;100.00;100620.78;5036896;28;20025;-80
2024/01/22 00:22:42;;;;;;;6.20;4.45;;;;;;;7.88;100.00;100648.28;5054809;28;20048;-77
2024/01/22 00:25:07;;;;;;;6.30;4.88;;;;;;;7.90;100.00;100614.28;5054572;28;20029;-79
2024/01/22 00:27:33;;;;;;;7.38;4.40;;;;;;;7.90;100.00;100611.63;5054572;28;20068;-79
2024/01/22 00:29:59;;;;;;;8.52;4.80;;;;;;;7.90;100.00;100619.59;5054601;28;20051;-80
2024/01/22 00:32:25;;;;;;;6.88;4.97;;;;;;;7.81;100.00;100602.19;5054762;28;20433;-78
2024/01/22 00:34:50;;;;;;;5.28;4.03;;;;;;;7.76;100.00;100586.81;5054442;28;20032;-77
2024/01/22 00:37:15;;;;;;;6.22;4.55;;;;;;;7.75;100.00;100565.72;5036394;28;20056;-81
2024/01/22 00:39:41;;;;;;;5.93;4.50;;;;;;;7.90;100.00;100565.53;5054318;28;20112;-81
2024/01/22 00:42:06;;;;;;;7.47;5.60;;;;;;;7.98;100.00;100590.13;5054342;28;20499;-79
2024/01/22 00:44:31;;;;;;;8.68;4.43;;;;;;;8.07;100.00;100550.78;5036423;28;20465;-81
2024/01/22 00:46:57;;;;;;;5.47;4.43;;;;;;;8.04;100.00;100533.38;5054151;28;20056;-80
2024/01/22 00:49:22;;;;;;;7.03;4.25;;;;;;;8.10;100.00;100533.63;5054103;28;20083;-80
2024/01/22 00:51:47;;;;;;;7.07;4.65;;;;;;;8.23;100.00;100538.94;5054198;28;20025;-78
2024/01/22 00:54:13;;;;;;;6.68;4.50;;;;;;;8.24;100.00;100546.72;5054237;28;20396;-80
2024/01/22 00:56:38;;;;;;;4.50;3.63;;;;;;;8.16;100.00;100535.44;5036254;28;20037;-80
2024/01/22 00:59:03;;;;;;;8.68;4.78;;;;;;;8.23;100.00;100569.03;5054149;28;20433;-80
2024/01/22 01:01:32;;;;;;;7.72;4.30;;;;;;;8.24;100.00;100520.06;5036092;28;20067;-76
2024/01/22 01:03:57;;;;;;;5.10;3.70;;;;;;;8.22;100.00;100540.78;5053963;28;20037;-78
2024/01/22 01:06:23;;;;;;;5.93;3.95;;;;;;;8.37;100.00;100512.09;5036157;28;20066;-78
2024/01/22 01:08:49;;;;;;;6.97;4.47;;;;;;;8.41;100.00;100541.81;5054320;28;20086;-78
2024/01/22 01:11:14;;;;;;;4.78;3.88;;;;;;;8.47;100.00;100498.34;5053826;28;20496;-80
2024/01/22 01:13:40;;;;;;;7.15;3.95;;;;;;;8.42;100.00;100553.28;5053916;28;20029;-78
2024/01/22 01:16:06;;;;;;;5.22;4.32;;;;;;;8.43;100.00;100515.78;5035953;28;20036;-79
2024/01/22 01:18:31;;;;;;;6.32;4.20;;;;;;;8.42;100.00;100518.66;5034523;28;20029;-78
2024/01/22 01:20:56;;;;;;;3.92;3.53;;;;;;;8.54;100.00;100557.78;5053888;28;20056;-78
2024/01/22 01:23:22;;;;;;;4.15;3.38;;;;;;;8.53;100.00;100502.03;5035660;28;20159;-78
2024/01/22 01:25:47;;;;;;;4.82;3.17;;;;;;;8.62;100.00;100508.75;5053660;28;20017;-77
2024/01/22 01:28:13;;;;;;;5.80;3.75;;;;;;;8.67;100.00;100514.25;5053641;28;20036;-78
2024/01/22 01:30:38;;;;;;;5.38;3.63;;;;;;;8.68;100.00;100489.28;5053821;28;20025;-79
2024/01/22 01:33:04;;;;;;;4.65;3.72;;;;;;;8.68;100.00;100428.78;5035649;28;20032;-80
2024/01/22 01:35:29;;;;;;;5.60;3.42;;;;;;;8.62;100.00;100469.59;5045343;28;20025;-80
2024/01/22 01:37:55;;;;;;;4.32;3.70;;;;;;;8.73;100.00;100475.31;5053366;28;20029;-78
2024/01/22 01:40:20;;;;;;;7.00;4.00;;;;;;;8.73;100.00;100412.16;5053409;28;20029;-78
2024/01/22 01:42:46;;;;;;;3.88;3.22;;;;;;;8.74;100.00;100426.31;5053314;28;20104;-83
2024/01/22 01:45:13;;;;;;;8.43;3.53;;;;;;;8.80;100.00;100471.59;5035352;28;20087;-79
2024/01/22 01:47:45;;;;;;;5.55;3.60;;;;;;;8.81;100.00;100493.72;5053121;28;20028;-79
2024/01/22 01:50:10;;;;;;;5.15;3.17;;;;;;;8.77;100.00;100468.53;5035578;28;20036;-79
2024/01/22 01:52:37;;;;;;;4.10;3.03;;;;;;;8.79;100.00;100437.16;5053307;28;20037;-78
2024/01/22 01:55:02;;;;;;;4.00;3.00;;;;;;;8.83;100.00;100476.50;5053188;28;20029;-81
2024/01/22 01:57:29;;;;;;;4.07;3.00;;;;;;;8.86;100.00;100485.91;5035375;28;20079;-79
2024/01/22 01:59:56;;;;;;;6.95;3.50;;;;;;;8.86;100.00;100433.41;5053201;28;20021;-78
2024/01/22 02:02:21;;;;;;;5.40;2.88;;;;;;;8.89;100.00;100464.16;5052986;28;20045;-80
2024/01/22 02:04:47;;;;;;;5.30;3.50;;;;;;;8.89;100.00;100472.97;5053093;28;20204;-77
2024/01/22 02:07:12;;;;;;;7.85;3.15;;;;;;;8.84;100.00;100461.31;5052952;28;20445;-77
2024/01/22 02:09:56;;;;;;;5.43;2.95;;;;;;;8.79;100.00;100448.63;5035171;28;20016;-80
2024/01/22 02:12:21;;;;;;;4.15;2.70;;;;;;;8.84;100.00;100440.81;5053063;28;20107;-79
2024/01/22 02:14:47;;;;;;;3.53;3.08;;;;;;;8.84;100.00;100424.81;5052883;28;20116;-81
2024/01/22 02:17:14;;;;;;;3.70;2.75;;;;;;;8.84;100.00;100440.81;5035059;28;20037;-79
2024/01/22 02:19:39;;;;;;;5.20;3.25;;;;;;;8.85;100.00;100399.78;5052778;28;20036;-79
2024/01/22 02:22:05;;;;;;;5.47;3.22;;;;;;;8.89;100.00;100432.97;5034731;28;20021;-80
2024/01/22 02:24:31;;;;;;;5.55;3.30;;;;;;;8.89;100.00;100411.66;5052521;28;20029;-79
2024/01/22 02:26:56;;;;;;;5.32;2.78;;;;;;;8.86;100.00;100408.59;5034967;28;20043;-79
2024/01/22 02:29:21;;;;;;;5.78;3.38;;;;;;;8.88;100.00;100386.03;5052361;28;20026;-81
2024/01/22 02:31:48;;;;;;;4.80;3.17;;;;;;;8.91;100.00;100398.09;5052687;28;20028;-77
2024/01/22 02:34:15;;;;;;;4.78;3.10;;;;;;;8.89;100.00;100379.66;5052445;28;20155;-77
2024/01/22 02:36:40;;;;;;;5.63;3.25;;;;;;;8.99;100.00;100317.88;5052939;28;20462;-79
2024/01/22 02:39:06;;;;;;;4.72;3.00;;;;;;;8.94;100.00;100403.81;5034608;28;20120;-79
2024/01/22 02:41:31;;;;;;;3.75;2.83;;;;;;;8.72;100.00;100356.41;5052553;28;20032;-79
2024/01/22 02:43:57;;;;;;;4.60;2.88;;;;;;;8.43;100.00;100352.44;5034681;28;20051;-78
2024/01/22 02:46:24;;;;;;;4.28;3.15;;;;;;;8.34;100.00;100333.22;5052257;28;20047;-80
2024/01/22 02:48:50;;;;;;;3.75;2.95;;;;;;;8.34;100.00;100333.22;5034392;28;20059;-79
2024/01/22 02:51:15;;;;;;;4.55;3.13;;;;;;;8.31;100.00;100339.75;5052335;28;20389;-79
2024/01/22 02:53:41;;;;;;;3.10;2.80;;;;;;;8.48;100.00;100323.31;5034318;28;20027;-78
2024/01/22 02:56:06;;;;;;;4.93;2.45;;;;;;;8.50;100.00;100332.72;5052356;28;20069;-79
2024/01/22 02:58:32;;;;;;;6.22;2.80;;;;;;;8.62;100.00;100312.34;5052032;28;20067;-80
2024/01/22 03:00:57;;;;;;;5.03;2.85;;;;;;;8.55;100.00;100308.09;5034336;28;20037;-79
2024/01/22 03:03:22;;;;;;;4.32;3.42;;;;;;;8.33;100.00;100310.22;5052262;28;20032;-81
2024/01/22 03:05:48;;;;;;;4.97;3.63;;;;;;;8.08;100.00;100291.50;5034514;28;20120;-81
2024/01/22 03:08:13;;;;;;;6.30;3.38;;;;;;;8.07;100.00;100292.50;5034409;28;20500;-79
2024/01/22 03:10:39;;;;;;;4.70;2.97;;;;;;;8.11;100.00;100276.97;5052060;28;20083;-80
2024/01/22 03:13:04;;;;;;;6.20;3.25;;;;;;;8.15;100.00;100288.81;5051983;28;20028;-78
2024/01/22 03:15:30;;;;;;;3.75;3.10;;;;;;;8.12;100.00;100286.59;5034004;28;20494;-81
2024/01/22 03:17:55;;;;;;;7.88;4.32;;;;;;;8.11;100.00;100267.13;5052042;28;20436;-79
2024/01/22 03:20:21;;;;;;;4.55;3.50;;;;;;;8.03;100.00;100267.34;5034230;28;20064;-79
2024/01/22 03:22:46;;;;;;;5.57;3.90;;;;;;;8.13;100.00;100265.06;5051845;28;20025;-79
2024/01/22 03:25:15;;;;;;;4.90;3.83;;;;;;;8.16;100.00;100263.81;5017463;28;20033;-78
2024/01/22 03:27:41;;;;;;;4.38;3.25;;;;;;;8.13;100.00;100258.94;5051663;28;20534;-78
2024/01/22 03:30:07;;;;;;;4.30;3.15;;;;;;;8.14;100.00;100253.38;5051921;28;20025;-79
2024/01/22 03:32:32;;;;;;;3.47;3.17;;;;;;;8.19;100.00;100242.91;5033859;28;20025;-79
2024/01/22 03:34:58;;;;;;;4.15;3.10;;;;;;;8.36;100.00;100278.69;5051654;28;20075;-80
2024/01/22 03:37:23;;;;;;;3.72;2.90;;;;;;;8.46;100.00;100229.47;5051761;28;20116;-80
2024/01/22 03:39:48;;;;;;;3.33;2.83;;;;;;;8.40;100.00;100246.31;5051717;28;20025;-80
2024/01/22 03:42:14;;;;;;;3.55;3.20;;;;;;;8.46;100.00;100277.44;5050780;28;20113;-79
2024/01/22 03:44:39;;;;;;;5.75;3.38;;;;;;;8.44;100.00;100231.53;5033874;28;20021;-80
2024/01/22 03:47:05;;;;;;;4.95;3.13;;;;;;;8.62;100.00;100236.91;5033680;28;20039;-78
2024/01/22 03:49:30;;;;;;;4.47;3.28;;;;;;;8.71;100.00;100267.63;5051565;28;20029;-80
2024/01/22 03:51:55;;;;;;;3.05;2.60;;;;;;;8.76;100.00;100219.81;5051635;28;20031;-78
2024/01/22 03:54:21;;;;;;;4.47;2.60;;;;;;;8.71;100.00;100238.31;5051409;28;20025;-79
2024/01/22 03:56:46;;;;;;;3.40;3.08;;;;;;;8.95;100.00;100239.31;5051394;28;20087;-79
2024/01/22 03:59:11;;;;;;;3.15;2.50;;;;;;;8.95;100.00;100239.31;5051335;28;20021;-79
2024/01/22 04:01:37;;;;;;;2.95;2.58;;;;;;;8.77;100.00;100226.78;5033320;28;20033;-78
2024/01/22 04:04:03;;;;;;;3.13;2.50;;;;;;;8.65;100.00;100213.31;5051350;28;20106;-79
2024/01/22 04:06:28;;;;;;;4.40;2.40;;;;;;;8.56;100.00;100249.25;5033606;28;20032;-80
2024/01/22 04:08:54;;;;;;;2.53;2.33;;;;;;;8.60;100.00;100159.88;5051447;28;20044;-81
2024/01/22 04:11:19;;;;;;;3.20;2.85;;;;;;;8.71;100.00;100224.16;5033421;28;20033;-78
2024/01/22 04:13:45;;;;;;;2.60;2.38;;;;;;;8.74;100.00;100231.72;5033277;28;20028;-81
2024/01/22 04:16:14;;;;;;;2.38;2.15;;;;;;;8.78;100.00;100228.41;5033287;28;20497;-80
2024/01/22 04:18:43;;;;;;;2.55;2.30;;;;;;;8.77;100.00;100213.44;5051125;28;20033;-81
2024/01/22 04:21:09;;;;;;;3.72;2.80;;;;;;;8.87;100.00;100245.75;5033370;28;20079;-80
2024/01/22 04:23:35;;;;;;;3.10;2.70;;;;;;;8.86;100.00;100203.31;5051109;28;20043;-78
2024/01/22 04:26:02;;;;;;;2.20;2.00;;;;;;;8.99;100.00;100213.88;5051127;28;20048;-79
2024/01/22 04:28:27;;;;;;;4.15;2.60;;;;;;;9.05;100.00;100197.00;5051064;28;20506;-79
2024/01/22 04:30:54;;;;;;;3.90;2.22;;;;;;;9.10;100.00;100201.66;5033153;28;20114;-82
2024/01/22 04:33:20;;;;;;;3.30;2.28;;;;;;;9.29;100.00;100206.00;5033176;28;20044;-78
2024/01/22 04:35:45;;;;;;;2.58;2.38;;;;;;;9.37;100.00;100183.53;5050997;28;20025;-80
2024/01/22 04:38:11;;;;;;;2.40;2.20;;;;;;;9.37;100.00;100218.22;5033298;28;20037;-80
2024/01/22 04:40:36;;;;;;;3.08;2.33;;;;;;;9.44;100.00;100203.78;5051222;28;20033;-79
2024/01/22 04:43:03;;;;;;;2.25;2.05;;;;;;;9.50;100.00;100162.84;5051056;28;20025;-80
2024/01/22 04:45:28;;;;;;;3.85;2.42;;;;;;;9.59;100.00;100203.41;5050896;28;20029;-80
2024/01/22 04:47:54;;;;;;;3.42;2.08;;;;;;;9.75;100.00;100186.78;5032867;28;20035;-77
2024/01/22 04:50:19;;;;;;;2.17;1.67;;;;;;;9.75;100.00;100201.97;5050969;28;20029;-81
2024/01/22 04:52:44;;;;;;;2.30;2.10;;;;;;;9.74;100.00;100181.66;5033870;28;20037;-79
2024/01/22 04:55:10;;;;;;;2.00;1.80;;;;;;;9.69;100.00;100217.03;5054160;28;20029;-79
2024/01/22 04:57:35;;;;;;;3.22;2.35;;;;;;;9.73;100.00;100185.38;5036463;28;20029;-78
2024/01/22 05:00:01;;;;;;;3.50;2.15;;;;;;;9.61;100.00;100194.16;5036432;28;20058;-78
2024/01/22 05:02:29;;;;;;;2.20;2.00;;;;;;;9.67;100.00;100160.41;5054287;28;20036;-79
2024/01/22 05:04:57;;;;;;;3.40;1.90;;;;;;;9.74;100.00;100195.00;5054084;28;20028;-80
2024/01/22 05:07:24;;;;;;;2.42;1.92;;;;;;;9.88;100.00;100167.94;5054138;28;20366;-78
2024/01/22 05:09:52;;;;;;;2.45;2.17;;;;;;;9.93;100.00;100145.88;5054087;28;20473;-80
2024/01/22 05:12:17;;;;;;;4.78;2.28;;;;;;;9.96;100.00;100182.81;5054106;28;20033;-80
2024/01/22 05:14:42;;;;;;;2.90;2.40;;;;;;;9.93;100.00;100200.09;5035871;28;20543;-81
2024/01/22 05:17:08;;;;;;;3.85;1.95;;;;;;;10.04;100.00;100147.78;5036051;28;20521;-78
2024/01/22 05:19:33;;;;;;;2.10;1.90;;;;;;;9.99;100.00;100158.31;5053884;28;20417;-78
2024/01/22 05:21:59;;;;;;;4.18;2.00;;;;;;;9.98;100.00;100159.38;5054229;28;20029;-82
2024/01/22 05:24:25;;;;;;;2.20;1.90;;;;;;;10.04;100.00;100190.50;5053890;28;20349;-78
2024/01/22 05:26:50;;;;;;;3.17;1.80;;;;;;;10.03;100.00;100167.50;5036412;28;20033;-85
2024/01/22 05:29:15;;;;;;;3.70;2.58;;;;;;;10.12;100.00;100139.44;5035888;28;20033;-84
2024/01/22 05:31:41;;;;;;;2.75;1.98;;;;;;;10.32;100.00;100197.13;5053633;28;20037;-81
2024/01/22 05:34:06;;;;;;;2.30;2.10;;;;;;;10.25;100.00;100191.91;5035709;28;20031;-82
2024/01/22 05:36:31;;;;;;;4.57;2.63;;;;;;;10.19;100.00;100190.91;5035833;28;20480;-84
2024/01/22 05:38:57;;;;;;;3.17;2.33;;;;;;;10.24;100.00;100184.91;5035909;28;20052;-81
2024/01/22 05:41:22;;;;;;;3.05;1.98;;;;;;;10.23;100.00;100189.44;5053967;28;20057;-83
2024/01/22 05:43:48;;;;;;;2.10;1.88;;;;;;;10.08;100.00;100189.00;5036701;28;20052;-81
2024/01/22 05:46:14;;;;;;;2.28;1.88;;;;;;;10.09;100.00;100182.63;5054300;28;20025;-80
2024/01/22 05:48:39;;;;;;;3.00;1.85;;;;;;;10.12;100.00;100182.19;5054714;28;20102;-82
2024/01/22 05:51:04;;;;;;;2.55;2.30;;;;;;;10.08;100.00;100172.97;5053906;28;20409;-80
2024/01/22 05:53:30;;;;;;;1.70;1.60;;;;;;;10.10;100.00;100205.63;5036723;28;20029;-85
2024/01/22 05:55:55;;;;;;;2.30;2.10;;;;;;;10.04;100.00;100185.16;5054419;28;20017;-79
2024/01/22 05:58:22;;;;;;;2.38;2.10;;;;;;;10.06;100.00;100193.75;5054681;28;20029;-83
2024/01/22 06:00:49;;;;;;;3.00;2.15;;;;;;;10.00;100.00;100186.66;5035910;28;20021;-83
2024/01/22 06:03:14;;;;;;;7.15;2.50;;;;;;;9.82;100.00;100166.13;5036404;28;20044;-79
2024/01/22 06:05:40;;;;;;;2.75;2.40;;;;;;;9.75;100.00;100218.00;5053546;28;20438;-84
2024/01/22 06:08:05;;;;;;;4.13;2.47;;;;;;;9.85;100.00;100197.75;5053974;28;20366;-81
2024/01/22 06:10:31;;;;;;;2.10;1.75;;;;;;;9.80;100.00;100188.75;5053886;28;20104;-84
2024/01/22 06:12:56;;;;;;;2.83;2.33;;;;;;;9.78;100.00;100193.53;5053796;28;20036;-85
2024/01/22 06:15:21;;;;;;;2.50;2.05;;;;;;;9.73;100.00;100174.69;5036079;28;20458;-82
2024/01/22 06:17:49;;;;;;;3.95;2.80;;;;;;;9.50;100.00;100156.69;5053287;28;20037;-84
2024/01/22 06:20:14;;;;;;;4.07;3.38;;;;;;;9.35;100.00;100153.59;5052956;28;20027;-81
2024/01/22 06:22:40;;;;;;;2.83;2.45;;;;;;;9.39;100.00;100174.28;5034936;28;20393;-86
2024/01/22 06:25:06;;;;;;;4.30;2.80;;;;;;;9.32;100.00;100178.88;5034986;28;20025;-86
2024/01/22 06:27:32;;;;;;;3.95;2.60;;;;;;;9.30;100.00;100172.94;5035212;28;20029;-84
2024/01/22 06:29:59;;;;;;;3.13;2.83;;;;;;;9.26;100.00;100193.09;5035386;28;20032;-82
2024/01/22 06:32:25;;;;;;;7.32;2.92;;;;;;;9.32;100.00;100193.03;5053256;28;20021;-82
2024/01/22 06:34:50;;;;;;;4.63;2.90;;;;;;;9.30;100.00;100175.63;5054073;28;20072;-85
2024/01/22 06:37:16;;;;;;;3.88;2.58;;;;;;;9.29;100.00;100193.47;5054629;28;20044;-81
2024/01/22 06:39:41;;;;;;;3.75;2.60;;;;;;;9.28;100.00;100193.69;5053729;28;20025;-84
2024/01/22 06:42:07;;;;;;;3.58;2.95;;;;;;;9.31;100.00;100190.59;5036320;28;20036;-81
2024/01/22 06:44:32;;;;;;;2.92;2.65;;;;;;;9.37;100.00;100204.88;5037267;28;20028;-82
2024/01/22 06:46:58;;;;;;;2.97;2.67;;;;;;;9.37;100.00;100184.34;5057186;28;20033;-81
2024/01/22 06:49:23;;;;;;;2.67;2.30;;;;;;;9.37;100.00;100208.38;5054960;28;20056;-81
2024/01/22 06:51:49;;;;;;;3.92;2.30;;;;;;;9.41;100.00;100198.06;5035833;28;20116;-80
2024/01/22 06:54:15;;;;;;;2.80;2.10;;;;;;;9.51;100.00;100195.69;5034556;28;20044;-81
2024/01/22 06:56:41;;;;;;;6.25;2.50;;;;;;;9.62;100.00;100227.81;5035048;28;20029;-83
2024/01/22 06:59:06;;;;;;;2.42;1.70;;;;;;;9.65;100.00;100212.38;5053576;28;20088;-83
2024/01/22 07:01:32;;;;;;;3.42;1.95;;;;;;;9.57;100.00;100227.66;5052839;28;20071;-80
2024/01/22 07:03:57;;;;;;;3.40;1.77;;;;;;;9.63;100.00;100221.44;5052522;28;20045;-80
2024/01/22 07:06:23;;;;;;;2.13;1.90;;;;;;;9.60;100.00;100199.72;5034705;28;20020;-79
2024/01/22 07:08:48;;;;;;;1.70;1.60;;;;;;;9.68;100.00;100215.41;5018318;28;20036;-78
2024/01/22 07:11:13;;;;;;;1.88;1.65;;;;;;;9.68;100.00;100235.94;5034469;28;20052;-79
2024/01/22 07:13:39;;;;;;;1.75;1.50;;;;;;;9.71;100.00;100238.19;5052096;28;20063;-80
2024/01/22 07:16:06;;;;;;;3.42;1.95;;;;;;;9.79;100.00;100219.19;5050998;28;20040;-80
2024/01/22 07:18:32;;;;;;;3.70;1.98;;;;;;;9.83;100.00;100220.34;5044239;28;20029;-81
2024/01/22 07:20:58;;;;;;;2.10;1.85;;;;;;;9.86;100.00;100230.63;5034202;28;20174;-78
2024/01/22 07:23:24;;;;;;;3.10;1.85;;;;;;;9.84;100.00;100238.03;5052369;28;20559;-82
2024/01/22 07:25:49;;;;;;;3.78;2.10;;;;;;;9.82;100.00;100230.22;5052605;28;20060;-81
2024/01/22 07:28:15;;;;;;;2.40;1.92;;;;;;;9.87;100.00;100261.63;5052868;28;20036;-82
2024/01/22 07:30:40;;;;;;;3.97;2.05;;;;;;;9.89;100.00;100230.16;5052142;28;20032;-81
2024/01/22 07:33:05;;;;;;;3.97;2.60;;;;;;;9.84;100.00;100222.00;5034185;28;20017;-85
2024/01/22 07:35:31;;;;;;;5.70;2.70;;;;;;;9.83;100.00;100233.69;5034460;28;20040;-82
2024/01/22 07:37:57;;;;;;;2.97;1.80;;;;;;;9.71;100.00;100236.31;5052140;28;20536;-84
2024/01/22 07:40:22;;;;;;;5.32;2.72;;;;;;;9.83;100.00;100220.34;5034179;28;20029;-79
2024/01/22 07:42:48;;;;;;;6.97;2.70;;;;;;;9.75;100.00;100237.50;5052047;28;20049;-82
2024/01/22 07:45:14;;;;;;;5.70;2.50;;;;;;;9.77;100.00;100215.91;5034028;28;20044;-83
2024/01/22 07:47:39;;;;;;;8.45;3.00;;;;;;;9.78;100.00;100241.56;5033972;28;20035;-84
2024/01/22 07:50:06;;;;;;;5.95;2.60;;;;;;;9.68;100.00;100249.31;5034150;28;20029;-82
2024/01/22 07:52:34;;;;;;;4.32;2.40;;;;;;;9.65;100.00;100239.06;5051767;28;20035;-80
2024/01/22 07:55:00;;;;;;;10.30;3.00;;;;;;;9.63;100.00;100224.09;5051579;28;20032;-79
2024/01/22 07:57:26;;;;;;;6.82;2.97;;;;;;;9.61;100.00;100268.88;5033910;28;20493;-82
2024/01/22 07:59:51;;;;;;;7.53;3.17;;;;;;;9.50;100.00;100237.56;5033769;28;20024;-80
2024/01/22 08:02:16;;;;;;;9.27;3.50;;;;;;;9.45;100.00;100249.94;5052094;28;20033;-84
2024/01/22 08:04:42;;;;;;;9.38;2.90;;;;;;;9.49;100.00;100240.47;5052307;28;20037;-84
2024/01/22 08:07:07;;;;;;;12.13;3.67;;;;;;;9.44;100.00;100242.97;5051782;28;20056;-84
2024/01/22 08:09:34;;;;;;;14.38;3.70;;;;;;;9.44;100.00;100240.31;5034048;28;20053;-85
2024/01/22 08:11:59;;;;;;;14.90;4.15;;;;;;;9.42;100.00;100232.53;5051584;28;20039;-81
2024/01/22 08:14:24;;;;;;;12.00;3.05;;;;;;;9.38;100.00;100220.69;5051451;28;20123;-83
2024/01/22 08:16:52;;;;;;;11.98;3.22;;;;;;;9.36;100.00;100251.28;5051689;28;20365;-86
2024/01/22 08:19:18;;;;;;;16.33;3.60;;;;;;;9.38;100.00;100260.69;5051578;28;20041;-82
2024/01/22 08:21:43;;;;;;;8.65;2.90;;;;;;;9.39;100.00;100269.50;5033855;28;20108;-84
2024/01/22 08:24:08;;;;;;;13.93;4.82;;;;;;;9.42;100.00;100267.22;5033570;28;20033;-80
2024/01/22 08:26:34;;;;;;;18.42;4.47;;;;;;;9.35;100.00;100250.47;5051366;28;20029;-82
2024/01/22 08:28:59;;;;;;;9.95;3.47;;;;;;;9.34;100.00;100240.84;5054271;28;20824;-80
2024/01/22 08:31:25;;;;;;;7.80;2.63;;;;;;;9.43;100.00;100249.34;5037028;28;20037;-78
2024/01/22 08:33:50;;;;;;;11.20;3.00;;;;;;;9.38;100.00;100268.69;5037023;28;20389;-79
2024/01/22 08:36:16;;;;;;;13.98;2.88;;;;;;;9.35;100.00;100271.81;5036819;28;20409;-79
2024/01/22 08:38:41;;;;;;;13.40;3.28;;;;;;;9.33;100.00;100268.56;5054693;28;20032;-81
2024/01/22 08:41:08;;;;;;;13.38;4.10;;;;;;;9.29;100.00;100264.69;5036676;28;20025;-80
2024/01/22 08:43:34;;;;;;;15.98;3.80;;;;;;;9.24;100.00;100268.00;5054637;28;20025;-80
2024/01/22 08:46:00;;;;;;;9.77;4.20;;;;;;;9.30;100.00;100269.81;5036618;28;20032;-81
2024/01/22 08:48:25;;;;;;;12.50;4.28;;;;;;;9.22;100.00;100262.06;5036541;28;20436;-79
2024/01/22 08:50:51;;;;;;;16.00;4.35;;;;;;;9.26;100.00;100273.13;5054746;28;20465;-79
2024/01/22 08:53:16;;;;;;;20.85;4.63;;;;;;;9.22;100.00;100287.94;5054407;28;20025;-78
2024/01/22 08:55:41;;;;;;;19.08;4.15;;;;;;;9.24;100.00;100280.50;5036580;28;20409;-78
2024/01/22 08:58:07;;;;;;;9.77;3.28;;;;;;;9.25;100.00;100288.34;5054493;28;20489;-80
2024/01/22 09:00:32;;;;;;;13.82;4.40;;;;;;;9.21;100.00;100268.44;5054360;28;20029;-79
2024/01/22 09:02:57;;;;;;;16.25;3.47;;;;;;;9.17;100.00;100250.44;5036446;28;20029;-77
2024/01/22 09:05:23;;;;;;;16.88;4.35;;;;;;;9.21;100.00;100272.97;5054282;28;20039;-77
2024/01/22 09:07:48;;;;;;;12.90;4.35;;;;;;;9.16;100.00;100252.28;5036298;28;20078;-77
2024/01/22 09:10:14;;;;;;;21.10;4.10;;;;;;;9.16;100.00;100267.47;5036490;28;20112;-77
2024/01/22 09:12:40;;;;;;;15.23;3.88;;;;;;;9.12;100.00;100260.94;5036420;28;20045;-78
2024/01/22 09:15:06;;;;;;;22.30;5.82;;;;;;;9.12;100.00;100263.59;5053978;28;20025;-77
2024/01/22 09:17:33;;;;;;;17.58;4.13;;;;;;;9.04;100.00;100259.38;5054026;28;20037;-79
2024/01/22 09:20:01;;;;;;;16.70;4.57;;;;;;;8.99;100.00;100228.03;5035681;28;20434;-79
2024/01/22 09:22:29;;;;;;;15.20;4.60;;;;;;;9.10;100.00;100260.34;5036159;28;20033;-81
2024/01/22 09:24:55;;;;;;;21.80;5.53;;;;;;;9.07;100.00;100231.44;5054027;28;20373;-78
2024/01/22 09:27:29;;;;;;;14.00;5.07;;;;;;;9.07;100.00;100220.78;5020022;28;20057;-78
2024/01/22 09:29:58;;;;;;;17.90;4.78;;;;;;;9.09;100.00;100229.38;5036411;28;20033;-80
2024/01/22 09:32:25;;;;;;;15.68;4.35;;;;;;;9.08;100.00;100239.22;5035890;28;20029;-80
2024/01/22 09:34:53;;;;;;;16.98;4.60;;;;;;;9.11;100.00;100253.97;5053919;28;20473;-81
2024/01/22 09:37:19;;;;;;;13.85;3.80;;;;;;;9.20;100.00;100244.66;5036108;28;20116;-78
2024/01/22 09:40:13;;;;;;;16.30;4.57;;;;;;;9.09;100.00;100245.38;5053055;28;20107;-78
2024/01/22 09:42:39;;;;;;;15.18;4.90;;;;;;;8.99;100.00;100241.38;5029442;28;20086;-80
2024/01/22 09:45:08;;;;;;;21.40;4.70;;;;;;;9.13;100.00;100251.91;5036105;28;20045;-80
2024/01/22 09:47:39;;;;;;;16.08;4.70;;;;;;;9.04;100.00;100223.88;5028531;28;20025;-78
2024/01/22 09:50:06;;;;;;;14.75;3.88;;;;;;;9.02;100.00;100232.13;5036237;28;20477;-78
2024/01/22 09:52:36;;;;;;;12.70;4.03;;;;;;;9.06;100.00;100243.97;5027607;28;20079;-80
2024/01/22 09:55:01;;;;;;;15.45;4.72;;;;;;;9.12;100.00;100261.75;5035862;28;20032;-81
2024/01/22 09:57:31;;;;;;;11.50;4.25;;;;;;;9.07;100.00;100268.78;5053649;28;20461;-79
2024/01/22 09:59:59;;;;;;;13.05;4.25;;;;;;;9.13;100.00;100289.25;5053654;28;20036;-77
2024/01/22 10:02:24;;;;;;;6.78;2.80;;;;;;;9.30;100.00;100295.66;5053580;28;20033;-78
2024/01/22 10:04:50;;;;;;;11.32;3.13;;;;;;;9.17;100.00;100288.59;5053579;28;20032;-79
2024/01/22 10:07:16;;;;;;;9.85;2.60;;;;;;;9.27;100.00;100312.94;5053609;28;20101;-78
2024/01/22 10:09:43;;;;;;;8.65;2.55;;;;;;;9.25;100.00;100372.84;5054023;28;20529;-79
2024/01/22 10:12:14;;;;;;;11.20;2.50;;;;;;;8.76;100.00;100368.28;5035827;28;20402;-81
2024/01/22 10:14:56;;;;;;;10.02;2.33;;;;;;;8.41;100.00;100381.97;5053400;28;20029;-83
2024/01/22 10:17:25;;;;;;;11.40;2.67;;;;;;;8.00;100.00;100374.25;5053503;28;20029;-81
2024/01/22 10:20:26;;;;;;;11.75;2.83;;;;;;;7.94;100.00;100359.13;5035267;28;20107;-80
2024/01/22 10:23:02;;;;;;;22.98;4.70;;;;;;;7.72;100.00;100398.47;5029811;28;20035;-81
2024/01/22 10:25:29;;;;;;;15.15;3.80;;;;;;;7.57;100.00;100372.09;5035376;28;20059;-80
2024/01/22 10:28:08;;;;;;;15.73;3.35;;;;;;;7.66;100.00;100416.09;5018889;28;20029;-80
2024/01/22 10:30:36;;;;;;;18.33;3.35;;;;;;;7.62;100.00;100422.03;5045285;28;20079;-81
2024/01/22 10:33:52;;;;;;;14.85;5.90;;;;;;;7.68;100.00;100437.16;5035015;28;20035;-81
2024/01/22 10:37:04;;;;;;;15.15;4.20;;;;;;;7.67;100.00;100416.91;4982905;28;20131;-81
2024/01/22 10:39:37;;;;;;;15.93;4.40;;;;;;;7.19;100.00;100355.91;5041799;28;20496;-80
2024/01/22 10:42:29;;;;;;;21.05;4.35;;;;;;;7.56;100.00;100410.38;5049371;28;20585;-80
2024/01/22 10:48:29;;;;;;;23.30;5.90;;;;;;;7.57;100.00;100427.97;4972156;28;20074;-78
2024/01/22 10:51:14;;;;;;;19.60;5.25;;;;;;;7.30;100.00;100378.44;5033561;28;20044;-78
2024/01/22 10:53:41;;;;;;;28.65;7.68;;;;;;;7.62;100.00;100428.16;5034854;28;20040;-78
2024/01/22 10:56:06;;;;;;;24.30;4.80;;;;;;;7.66;100.00;100444.53;5034775;28;20390;-79
2024/01/22 10:58:45;;;;;;;23.92;4.88;;;;;;;7.73;100.00;100432.84;5034903;28;20074;-78
2024/01/22 11:01:22;;;;;;;26.98;6.00;;;;;;;7.71;100.00;100442.91;5035648;28;20051;-78
2024/01/22 11:03:50;;;;;;;19.58;4.68;;;;;;;7.70;100.00;100433.28;5034728;28;20189;-79
2024/01/22 11:06:19;;;;;;;24.83;5.40;;;;;;;7.48;100.00;100402.56;5034582;28;20783;-80
2024/01/22 11:08:51;;;;;;;22.83;5.45;;;;;;;7.88;100.00;100445.97;5034994;28;20537;-81
2024/01/22 11:11:24;;;;;;;27.00;4.22;;;;;;;7.78;100.00;100430.41;5034385;28;20041;-81
2024/01/22 11:14:01;;;;;;;;;;;;;;;8.00;100.00;100443.47;5034918;28;20029;-78
2024/01/22 11:16:30;;;;;;;35.78;6.30;;;;;;;7.56;100.00;100396.25;5034804;28;19920;-81
2024/01/22 11:19:00;;;;;;;25.58;5.25;;;;;;;7.96;100.00;100443.09;5034498;28;20025;-78
2024/01/22 11:21:37;;;;;;;26.63;6.30;;;;;;;7.92;100.00;100467.66;5034541;28;20033;-79
2024/01/22 11:24:14;;;;;;;29.83;7.38;;;;;;;7.98;100.00;100470.31;5034518;28;20035;-77